Terminal Aerodrome Forecast
Issued by NWS Charleston, WV

Current Version | Previous Version | Text Only | Print | Product List | Glossary Off
Versions: 1 2 3 4 5 6 7 8 9 10 11 12 13 14 15 16 17 18 19 20 21 22 23 24 25 26

000
FTUS41 KRLX 301129
TAFPKB
TAF
KPKB 301129Z 3012/0112 VRB03KT P6SM BKN030
     FM301400 22006KT P6SM BKN035
     FM301700 23007KT P6SM VCTS BKN040CB
     FM010200 30008KT P6SM BKN045
     FM010600 VRB03KT 5SM BR BKN035
      AMD NOT SKED=

USA.gov is the U.S. government's official web portal to all federal, state and local government web resources and services.